Last 30 Days

O'Neill Sea Odyssey

Daily Data | America/Los_Angeles
as of 4/12/24 5:50 AM PDT
Date Daily Max Temp (°F) Time of Max Temp Daily Min Temp (°F) Time of Min Temp Daily Rain (In) Season Precip (In) Wind Spd (mph) Daily Max Wind (mph) Time of Max Wind Max Wind Dir (°) Dew Pt (°F) Max RH (%) Min RH (%) MinBV Day (V)
4/11/24 67.5 1714 49.2 0536 0.00 29.75 5.0 16.4 1815 ESE | 104 52.2 98 60 13.3
4/10/24 64.6 1437 45.7 0623 0.00 29.75 5.4 20.0 1741 SW | 228 51.3 99 74 13.3
4/9/24 64.3 1701 43.4 0659 0.00 29.75 5.8 17.8 1549 SW | 225 48.2 95 68 13.3
4/8/24 61.8 1901 40.6 0700 0.00 29.75 4.4 12.3 1506 SSE | 148 46.4 94 63 13.4
4/7/24 61.4 1712 39.9 0649 0.00 29.75 8.1 27.0 1933 NNW | 345 41.7 92 44 13.4
4/6/24 56.2 1606 38.7 0501 0.00 29.75 8.6 24.8 1443 WSW | 251 40.0 94 44 13.4
4/5/24 56.8 1441 39.0 0612 0.01 29.75 6.5 33.3 1436 WSW | 255 38.0 98 35 13.5
4/4/24 50.7 1312 42.0 0059 0.65 29.74 9.0 47.4 1707 SSW | 211 41.4 97 57 13.5
4/3/24 60.7 1656 50.0 0059 0.00 29.09 6.8 21.9 2036 NW | 326 48.4 93 62 13.4
4/2/24 60.9 1730 45.7 0634 0.00 29.09 6.9 20.4 1610 SW | 223 48.7 94 68 13.4
4/1/24 62.5 1802 44.2 0709 0.00 29.09 6.9 20.2 1447 SW | 226 49.2 96 72 13.4
3/31/24 58.9 1457 44.3 0431 0.00 29.09 8.7 28.1 1600 WSW | 251 47.2 96 68 13.4
3/30/24 58.6 1543 45.8 0057 0.25 29.09 8.0 28.9 0231 SE | 124 46.4 96 53 13.4
3/29/24 55.1 2208 44.9 0345 1.38 28.84 14.3 36.0 1129 SE | 125 46.9 95 76 13.6
3/28/24 58.2 1654 45.9 0054 0.15 27.46 7.6 30.2 0105 SSW | 196 46.7 99 50 13.4
3/27/24 54.8 1553 45.0 0430 0.12 27.31 8.7 30.5 2244 SSW | 195 48.8 99 79 13.4
3/26/24 59.5 1734 48.1 0057 0.00 27.19 6.5 24.6 1232 SW | 230 46.9 96 60 13.4
3/25/24 58.8 1516 46.2 0246 0.00 27.19 7.6 31.8 1453 WSW | 247 46.0 96 64 13.4
3/24/24 59.7 1557 46.8 0618 0.15 27.19 5.9 28.7 1319 NNW | 329 46.1 99 54 13.4
3/23/24 56.3 1549 47.2 0438 0.26 27.04 7.3 28.3 1712 WSW | 245 48.0 100 66 13.5
3/22/24 60.5 1356 49.8 0624 0.59 26.78 7.0 33.8 2117 SSW | 208 52.0 96 76 13.3
3/21/24 61.8 1539 46.1 0646 0.00 26.19 7.3 25.2 1612 WSW | 256 49.5 95 72 13.4
3/20/24 70.8 1636 43.9 0728 0.00 26.19 6.0 20.8 1607 WSW | 253 47.8 93 27 13.3
3/19/24 64.6 1739 48.1 0818 0.00 26.19 4.9 16.2 1256 SW | 226 51.2 100 59 13.3
3/18/24 67.4 1651 44.6 0721 0.00 26.19 5.3 14.9 1233 SW | 218 49.8 96 57 13.3
3/17/24 64.0 1532 45.7 0559 0.00 26.19 5.9 18.4 1232 SW | 232 49.4 95 67 13.3
3/16/24 58.4 0959 46.4 0746 0.00 26.19 7.6 18.6 1850 WSW | 244 48.3 93 70 13.4
3/15/24 64.2 1505 49.9 0045 0.00 26.19 9.6 34.6 0438 NNE | 12 40.0 90 26 13.4
3/14/24 70.1 1621 50.1 0219 0.00 26.19 8.7 30.7 1119 N | 354 27.9 72 19 13.3
3/13/24 67.4 1600 43.7 0716 0.00 26.19 6.1 24.8 1656 NNE | 13 43.1 93 30 13.3
Max 70.8 - 50.1 - 1.38 29.75 14.3 47.4 - - 52.2 100 79 13.6
Avg - - - - - - 7.2 - - - 46.3 - - -
Min 50.7 - 38.7 - 0.00 26.19 4.4 12.3 - - 27.9 72 19 13.3